Time;durP1;ratioP1;P1;durP2;ratioP2;P2;SDS_P1;SDS_P2;PMS_P1;PMS_P2;Temp;Humidity;BMP_temperature;BMP_pressure;BME280_temperature;BME280_humidity;BME280_pressure;Samples;Min_cycle;Max_cycle;Signal;HPM_P1;HPM_P2
2023/04/15 00:00:21;;;;;;;1999.90;999.90;;;28.90;94.00;;;;;;5047224;28;20391;-70
2023/04/15 00:02:48;;;;;;;1999.90;999.90;;;29.10;94.20;;;;;;5038182;28;20034;-69
2023/04/15 00:05:16;;;;;;;1999.90;999.90;;;29.30;94.20;;;;;;5035732;28;20064;-71
2023/04/15 00:07:45;;;;;;;1999.90;999.90;;;29.50;93.00;;;;;;5034439;28;20034;-69
2023/04/15 00:10:16;;;;;;;1999.90;999.90;;;29.20;92.60;;;;;;5038618;28;20116;-69
2023/04/15 00:12:43;;;;;;;1999.90;999.90;;;29.00;93.20;;;;;;5056668;28;20040;-69
2023/04/15 00:15:11;;;;;;;1999.90;999.90;;;29.30;92.90;;;;;;5041861;28;20025;-69
2023/04/15 00:17:38;;;;;;;1999.90;999.90;;;29.50;91.80;;;;;;5052027;28;20094;-69
2023/04/15 00:20:06;;;;;;;1999.90;999.90;;;29.20;92.30;;;;;;5050653;28;20132;-70
2023/04/15 00:22:34;;;;;;;1999.90;999.90;;;29.00;92.20;;;;;;5053079;28;20021;-68
2023/04/15 00:25:02;;;;;;;1999.90;999.90;;;28.50;92.80;;;;;;5046954;28;20029;-70
2023/04/15 00:27:29;;;;;;;1999.90;999.90;;;28.20;93.10;;;;;;5051113;28;20507;-70
2023/04/15 00:29:57;;;;;;;1999.90;999.90;;;28.20;93.50;;;;;;5049379;28;20049;-69
2023/04/15 00:32:26;;;;;;;1999.90;999.90;;;28.30;93.30;;;;;;5041386;28;20143;-69
2023/04/15 00:34:53;;;;;;;1999.90;999.90;;;28.50;93.60;;;;;;5049317;28;20025;-69
2023/04/15 00:37:20;;;;;;;1999.90;999.90;;;28.50;93.60;;;;;;5055044;28;20078;-69
2023/04/15 00:39:48;;;;;;;1999.90;999.90;;;28.20;93.60;;;;;;5048891;28;20031;-71
2023/04/15 00:42:16;;;;;;;1999.90;999.90;;;28.20;93.80;;;;;;5055266;28;20021;-70
2023/04/15 00:44:43;;;;;;;1999.90;999.90;;;28.20;93.70;;;;;;5045578;28;20048;-70
2023/04/15 00:47:11;;;;;;;1999.90;999.90;;;28.40;94.00;;;;;;5048806;28;20032;-69
2023/04/15 00:49:39;;;;;;;1999.90;999.90;;;28.60;93.80;;;;;;5041838;28;20040;-71
2023/04/15 00:52:06;;;;;;;1999.90;999.90;;;28.90;94.40;;;;;;5049917;28;20483;-69
2023/04/15 00:54:33;;;;;;;1999.90;999.90;;;29.00;93.20;;;;;;5053744;28;20036;-68
2023/04/15 00:57:02;;;;;;;1999.90;999.90;;;28.80;93.30;;;;;;5065750;28;20032;-69
2023/04/15 00:59:30;;;;;;;1999.90;999.90;;;28.70;93.20;;;;;;5048509;28;20029;-70
2023/04/15 01:01:57;;;;;;;1999.90;999.90;;;28.70;93.80;;;;;;5046222;28;20040;-70
2023/04/15 01:04:25;;;;;;;1999.90;999.90;;;28.90;93.40;;;;;;5047041;28;20491;-70
2023/04/15 01:06:52;;;;;;;1999.90;999.90;;;29.20;93.60;;;;;;5053134;28;20029;-71
2023/04/15 01:09:20;;;;;;;1999.90;999.90;;;29.50;92.40;;;;;;5046666;28;20561;-69
2023/04/15 01:11:47;;;;;;;1999.90;999.90;;;29.50;92.50;;;;;;5057803;28;20037;-70
2023/04/15 01:14:15;;;;;;;1999.90;999.90;;;29.80;92.60;;;;;;5045477;28;20036;-71
2023/04/15 01:16:44;;;;;;;1999.90;999.90;;;29.70;92.40;;;;;;5055981;28;20075;-70
2023/04/15 01:19:13;;;;;;;1999.90;999.90;;;29.50;92.70;;;;;;5046202;28;20133;-73
2023/04/15 01:21:41;;;;;;;1999.90;999.90;;;29.70;92.50;;;;;;5048527;28;20052;-71
2023/04/15 01:24:10;;;;;;;1999.90;999.90;;;29.80;92.90;;;;;;5046798;28;20032;-71
2023/04/15 01:26:41;;;;;;;1999.90;999.90;;;29.60;92.30;;;;;;5050357;28;20488;-70
2023/04/15 01:29:08;;;;;;;1999.90;999.90;;;29.30;92.60;;;;;;5046730;28;20083;-71
2023/04/15 01:31:36;;;;;;;1999.90;999.90;;;29.60;92.60;;;;;;5052093;28;20041;-71
2023/04/15 01:34:03;;;;;;;1999.90;999.90;;;29.90;92.50;;;;;;5048759;28;20028;-70
2023/04/15 01:36:34;;;;;;;1999.90;999.90;;;30.30;92.20;;;;;;5048673;28;20051;-70
2023/04/15 01:39:03;;;;;;;1999.90;999.90;;;30.10;91.80;;;;;;5057156;28;20036;-71
2023/04/15 01:41:30;;;;;;;1999.90;999.90;;;30.40;91.70;;;;;;5060569;28;20465;-69
2023/04/15 01:43:57;;;;;;;1999.90;999.90;;;30.10;91.70;;;;;;5048945;28;20067;-69
2023/04/15 01:46:25;;;;;;;1999.90;999.90;;;29.60;92.10;;;;;;5044680;28;20021;-69
2023/04/15 01:48:52;;;;;;;1999.90;999.90;;;29.40;93.00;;;;;;5049784;28;20024;-69
2023/04/15 01:51:20;;;;;;;1999.90;999.90;;;29.40;92.60;;;;;;5053228;28;20042;-69
2023/04/15 01:53:48;;;;;;;1999.90;999.90;;;29.40;92.50;;;;;;5045641;28;20029;-70
2023/04/15 01:56:15;;;;;;;1999.90;999.90;;;29.50;92.60;;;;;;5054989;28;20486;-70
2023/04/15 01:58:44;;;;;;;1999.90;999.90;;;29.60;92.40;;;;;;5053244;28;20048;-69
2023/04/15 02:01:12;;;;;;;1999.90;999.90;;;29.80;92.60;;;;;;5061145;28;20423;-69
2023/04/15 02:03:39;;;;;;;1999.90;999.90;;;29.70;91.70;;;;;;5048266;28;20028;-70
2023/04/15 02:06:06;;;;;;;1999.90;999.90;;;29.90;91.60;;;;;;5042081;28;20033;-70
2023/04/15 02:08:33;;;;;;;1999.90;999.90;;;29.70;92.10;;;;;;5044461;28;20052;-70
2023/04/15 02:11:01;;;;;;;1999.90;999.90;;;29.60;91.70;;;;;;5055744;28;20050;-70
2023/04/15 02:13:28;;;;;;;1999.90;999.90;;;29.70;92.30;;;;;;5055675;28;20013;-71
2023/04/15 02:15:56;;;;;;;1999.90;999.90;;;29.40;91.50;;;;;;5058464;28;20040;-71
2023/04/15 02:18:23;;;;;;;1999.90;999.90;;;29.30;92.30;;;;;;5055355;28;20035;-69
2023/04/15 02:20:52;;;;;;;1999.90;999.90;;;29.50;92.60;;;;;;5058471;28;20033;-69
2023/04/15 02:23:19;;;;;;;1999.90;999.90;;;29.60;92.30;;;;;;5055168;28;20024;-70
2023/04/15 02:25:47;;;;;;;1999.90;999.90;;;29.70;92.40;;;;;;5047047;28;20029;-70
2023/04/15 02:28:14;;;;;;;1999.90;999.90;;;29.90;92.30;;;;;;5055669;28;20497;-70
2023/04/15 02:30:41;;;;;;;1999.90;999.90;;;29.80;92.10;;;;;;5057771;28;20036;-69
2023/04/15 02:33:09;;;;;;;1999.90;999.90;;;30.00;92.40;;;;;;5054261;28;20033;-69
2023/04/15 02:35:40;;;;;;;1999.90;999.90;;;30.00;91.60;;;;;;5052499;28;20065;-69
2023/04/15 02:38:08;;;;;;;1999.90;999.90;;;30.00;91.40;;;;;;5053903;28;20025;-69
2023/04/15 02:40:35;;;;;;;1999.90;999.90;;;30.10;90.30;;;;;;5045272;28;20032;-70
2023/04/15 02:43:06;;;;;;;1999.90;999.90;;;30.10;90.90;;;;;;5043465;28;20029;-70
2023/04/15 02:45:33;;;;;;;1999.90;999.90;;;29.70;91.40;;;;;;5049050;28;20028;-71
2023/04/15 02:48:04;;;;;;;1999.90;999.90;;;29.60;91.70;;;;;;5051494;28;20048;-69
2023/04/15 02:50:32;;;;;;;1999.90;999.90;;;29.70;91.90;;;;;;5041756;28;20159;-70
2023/04/15 02:53:00;;;;;;;1999.90;999.90;;;29.70;91.70;;;;;;5045063;28;20071;-69
2023/04/15 02:55:27;;;;;;;1999.90;999.90;;;29.60;91.60;;;;;;5044471;28;20018;-70
2023/04/15 02:57:56;;;;;;;1999.90;999.90;;;29.60;92.00;;;;;;5047995;28;20044;-69
2023/04/15 03:00:24;;;;;;;1999.90;999.90;;;29.60;91.40;;;;;;5044040;28;20033;-70
2023/04/15 03:02:55;;;;;;;1999.90;999.90;;;30.00;92.00;;;;;;5049919;28;20052;-69
2023/04/15 03:05:24;;;;;;;1999.90;999.90;;;30.40;90.70;;;;;;5046766;28;20025;-69
2023/04/15 03:07:54;;;;;;;1999.90;999.90;;;30.50;90.60;;;;;;5049422;28;20120;-69
2023/04/15 03:10:22;;;;;;;1999.90;999.90;;;30.30;90.90;;;;;;5043998;28;20041;-69
2023/04/15 03:12:49;;;;;;;1999.90;999.90;;;30.40;91.20;;;;;;5049856;28;20037;-69
2023/04/15 03:15:16;;;;;;;1999.90;999.90;;;30.20;90.60;;;;;;5040521;28;20112;-70
2023/04/15 03:17:44;;;;;;;1999.90;999.90;;;30.30;90.70;;;;;;5042148;28;20022;-69
2023/04/15 03:20:11;;;;;;;1999.90;999.90;;;30.40;90.40;;;;;;5047193;28;20033;-69
2023/04/15 03:22:39;;;;;;;1999.90;999.90;;;30.40;90.30;;;;;;5045126;28;20025;-69
2023/04/15 03:25:06;;;;;;;1999.90;999.90;;;30.40;89.90;;;;;;5048082;28;20014;-69
2023/04/15 03:27:33;;;;;;;1999.90;999.90;;;30.20;89.80;;;;;;5046685;28;20063;-69
2023/04/15 03:30:01;;;;;;;1999.90;999.90;;;30.10;89.70;;;;;;5049486;28;20060;-70
2023/04/15 03:32:28;;;;;;;1999.90;999.90;;;30.10;88.60;;;;;;5057483;28;20040;-69
2023/04/15 03:34:55;;;;;;;1999.90;999.90;;;29.90;86.70;;;;;;5052777;28;20475;-70
2023/04/15 03:37:23;;;;;;;1999.90;999.90;;;29.80;87.00;;;;;;5061667;28;20472;-70
2023/04/15 03:39:50;;;;;;;1999.90;999.90;;;29.70;86.40;;;;;;5050548;28;20110;-69
2023/04/15 03:42:17;;;;;;;1999.90;999.90;;;29.80;84.90;;;;;;5056897;28;20029;-71
2023/04/15 03:44:45;;;;;;;1999.90;999.90;;;29.90;87.20;;;;;;5053730;28;20040;-70
2023/04/15 03:47:12;;;;;;;1999.90;999.90;;;30.20;86.90;;;;;;5053184;28;20034;-70
2023/04/15 03:49:40;;;;;;;1999.90;999.90;;;30.10;87.80;;;;;;5048009;28;20021;-69
2023/04/15 03:52:07;;;;;;;1999.90;999.90;;;30.00;88.50;;;;;;5056034;28;20029;-70
2023/04/15 03:54:34;;;;;;;1999.90;999.90;;;29.70;88.10;;;;;;5054716;28;20516;-70
2023/04/15 03:57:02;;;;;;;1999.90;999.90;;;29.50;89.20;;;;;;5052517;28;20033;-69
2023/04/15 03:59:29;;;;;;;1999.90;999.90;;;29.50;90.00;;;;;;5055497;28;20025;-69
2023/04/15 04:01:56;;;;;;;1999.90;999.90;;;29.60;89.90;;;;;;5055987;28;20025;-69
2023/04/15 04:04:24;;;;;;;1999.90;999.90;;;29.70;89.10;;;;;;5052348;28;20031;-69
2023/04/15 04:06:51;;;;;;;1999.90;999.90;;;29.40;88.50;;;;;;5054808;28;20039;-70
2023/04/15 04:09:18;;;;;;;1999.90;999.90;;;29.30;86.30;;;;;;5044035;28;20049;-69
2023/04/15 04:11:46;;;;;;;1999.90;999.90;;;29.20;86.50;;;;;;5051282;28;20075;-69
2023/04/15 04:14:13;;;;;;;1999.90;999.90;;;29.40;86.50;;;;;;5046374;28;21586;-69
2023/04/15 04:16:40;;;;;;;1999.90;999.90;;;29.40;86.50;;;;;;5050804;28;20485;-69
2023/04/15 04:19:08;;;;;;;1999.90;999.90;;;29.50;86.20;;;;;;5045620;28;20096;-69
2023/04/15 04:21:35;;;;;;;1999.90;999.90;;;29.40;86.90;;;;;;5060068;28;20557;-67
2023/04/15 04:24:03;;;;;;;1999.90;999.90;;;29.20;86.30;;;;;;5046995;28;20482;-68
2023/04/15 04:26:30;;;;;;;1999.90;999.90;;;29.20;86.70;;;;;;5051518;28;20032;-70
2023/04/15 04:28:57;;;;;;;1999.90;999.90;;;29.20;86.80;;;;;;5049948;28;20518;-68
2023/04/15 04:31:25;;;;;;;1999.90;999.90;;;29.30;87.40;;;;;;5055631;28;20343;-69
2023/04/15 04:33:52;;;;;;;1999.90;999.90;;;29.20;86.40;;;;;;5047799;28;20025;-69
2023/04/15 04:36:19;;;;;;;1999.90;999.90;;;29.20;87.10;;;;;;5056922;28;20048;-70
2023/04/15 04:38:47;;;;;;;1999.90;999.90;;;29.20;86.50;;;;;;5053378;28;20094;-69
2023/04/15 04:41:14;;;;;;;1999.90;999.90;;;28.90;87.10;;;;;;5055436;28;20052;-69
2023/04/15 04:43:41;;;;;;;1999.90;999.90;;;28.80;86.70;;;;;;5044011;28;20477;-71
2023/04/15 04:46:09;;;;;;;1999.90;999.90;;;28.50;86.30;;;;;;5049901;28;20087;-69
2023/04/15 04:48:36;;;;;;;1999.90;999.90;;;28.40;87.00;;;;;;5044135;28;20035;-70
2023/04/15 04:51:04;;;;;;;1999.90;999.90;;;28.30;86.60;;;;;;5052267;28;20438;-69
2023/04/15 04:53:31;;;;;;;1999.90;999.90;;;28.30;87.00;;;;;;5047688;28;20486;-70
2023/04/15 04:55:59;;;;;;;1999.90;999.90;;;28.10;86.00;;;;;;5049559;28;20092;-70
2023/04/15 04:58:26;;;;;;;1999.90;999.90;;;27.90;86.40;;;;;;5051903;28;20507;-70
2023/04/15 05:00:53;;;;;;;1999.90;999.90;;;27.70;86.70;;;;;;5043014;28;20067;-70
2023/04/15 05:03:21;;;;;;;1999.90;999.90;;;27.70;88.00;;;;;;5051179;28;20055;-70
2023/04/15 05:05:49;;;;;;;1999.90;999.90;;;27.70;87.30;;;;;;5052067;28;20029;-70
2023/04/15 05:08:16;;;;;;;1999.90;999.90;;;27.70;87.60;;;;;;5048550;28;20069;-68
2023/04/15 05:10:44;;;;;;;1999.90;999.90;;;27.80;87.10;;;;;;5056401;28;20044;-69
2023/04/15 05:13:11;;;;;;;1999.90;999.90;;;27.70;88.00;;;;;;5044740;28;20036;-70
2023/04/15 05:15:40;;;;;;;1999.90;999.90;;;27.70;87.90;;;;;;5054444;28;20037;-69
2023/04/15 05:18:07;;;;;;;1999.90;999.90;;;27.60;89.10;;;;;;5041299;28;20025;-69
2023/04/15 05:20:34;;;;;;;1999.90;999.90;;;27.60;89.00;;;;;;5050958;28;20073;-69
2023/04/15 05:23:02;;;;;;;1999.90;999.90;;;27.60;89.20;;;;;;5054895;28;20032;-69
2023/04/15 05:25:29;;;;;;;1999.90;999.90;;;27.60;88.10;;;;;;5055089;28;20108;-69
2023/04/15 05:27:57;;;;;;;1999.90;999.90;;;27.50;89.20;;;;;;5060060;28;20135;-69
2023/04/15 05:30:24;;;;;;;1999.90;999.90;;;27.40;90.00;;;;;;5047573;28;20481;-69
2023/04/15 05:32:51;;;;;;;1999.90;999.90;;;27.40;89.80;;;;;;5050672;28;20037;-70
2023/04/15 05:35:19;;;;;;;1999.90;999.90;;;27.40;89.90;;;;;;5048913;28;20037;-71
2023/04/15 05:37:46;;;;;;;1999.90;999.90;;;27.30;87.40;;;;;;5056931;28;20048;-70
2023/04/15 05:40:14;;;;;;;1999.90;999.90;;;27.30;87.60;;;;;;5053923;28;20484;-69
2023/04/15 05:42:41;;;;;;;1999.90;999.90;;;27.30;88.10;;;;;;5053901;28;20050;-71
2023/04/15 05:45:09;;;;;;;1999.90;999.90;;;27.30;88.70;;;;;;5055578;28;20033;-70
2023/04/15 05:47:37;;;;;;;1999.90;999.90;;;27.30;88.90;;;;;;5055963;28;20472;-69
2023/04/15 05:50:05;;;;;;;1999.90;999.90;;;27.30;88.80;;;;;;5049890;28;20255;-71
2023/04/15 05:52:32;;;;;;;1999.90;999.90;;;27.30;88.50;;;;;;5055882;28;20502;-69
2023/04/15 05:55:00;;;;;;;1999.90;999.90;;;27.20;88.60;;;;;;5049687;28;20036;-70
2023/04/15 05:57:27;;;;;;;1999.90;999.90;;;27.20;89.70;;;;;;5054751;28;20033;-71
2023/04/15 05:59:56;;;;;;;1999.90;999.90;;;27.20;89.90;;;;;;5043977;28;20037;-70
2023/04/15 06:02:23;;;;;;;1999.90;999.90;;;27.10;89.50;;;;;;5056807;28;20025;-71
2023/04/15 06:04:51;;;;;;;1999.90;999.90;;;27.00;90.00;;;;;;5054761;28;20040;-69
2023/04/15 06:07:18;;;;;;;1999.90;999.90;;;26.90;90.40;;;;;;5051822;28;20039;-71
2023/04/15 06:09:45;;;;;;;1999.90;999.90;;;26.80;90.10;;;;;;5051787;28;20091;-71
2023/04/15 06:12:13;;;;;;;1999.90;999.90;;;26.50;90.10;;;;;;5053461;28;20043;-70
2023/04/15 06:14:40;;;;;;;1999.90;999.90;;;26.20;90.80;;;;;;5047690;28;20091;-70
2023/04/15 06:17:08;;;;;;;1999.90;999.90;;;26.00;91.10;;;;;;5052440;28;20029;-71
2023/04/15 06:19:35;;;;;;;1999.90;999.90;;;25.70;91.10;;;;;;5044212;28;20079;-71
2023/04/15 06:22:03;;;;;;;1999.90;999.90;;;25.70;91.20;;;;;;5051555;28;20029;-69
2023/04/15 06:24:31;;;;;;;1999.90;999.90;;;25.60;91.40;;;;;;5045298;28;20029;-68
2023/04/15 06:26:59;;;;;;;1999.90;999.90;;;25.50;91.60;;;;;;5043824;28;20111;-68
2023/04/15 06:29:26;;;;;;;1999.90;999.90;;;25.40;91.80;;;;;;5050985;28;20701;-68
2023/04/15 06:31:55;;;;;;;1999.90;999.90;;;25.40;92.10;;;;;;5039481;28;20060;-69
2023/04/15 06:34:22;;;;;;;1999.90;999.90;;;25.30;92.20;;;;;;5031658;28;20032;-69
2023/04/15 06:36:50;;;;;;;1999.90;999.90;;;25.30;92.20;;;;;;5051754;28;20087;-69
2023/04/15 06:39:17;;;;;;;1999.90;999.90;;;25.30;92.30;;;;;;5036864;28;20032;-69
2023/04/15 06:41:44;;;;;;;1999.90;999.90;;;25.20;92.20;;;;;;5040078;28;20539;-70
2023/04/15 06:44:12;;;;;;;1999.90;999.90;;;25.20;92.40;;;;;;5043860;28;20098;-69
2023/04/15 06:46:39;;;;;;;1999.90;999.90;;;25.00;92.70;;;;;;5050571;28;20436;-71
2023/04/15 06:49:07;;;;;;;1999.90;999.90;;;24.90;92.80;;;;;;5051037;28;20036;-70
2023/04/15 06:51:35;;;;;;;1999.90;999.90;;;24.90;92.70;;;;;;5052075;28;20037;-69
2023/04/15 06:54:04;;;;;;;1999.90;999.90;;;24.90;92.60;;;;;;5045378;28;20025;-70
2023/04/15 06:56:32;;;;;;;1999.90;999.90;;;24.80;92.90;;;;;;5047664;28;20032;-69
2023/04/15 06:59:00;;;;;;;1999.90;999.90;;;24.80;92.70;;;;;;5048529;28;20033;-70
2023/04/15 07:01:27;;;;;;;1999.90;999.90;;;24.80;92.80;;;;;;5059282;28;20475;-69
2023/04/15 07:03:54;;;;;;;1999.90;999.90;;;24.70;93.10;;;;;;5056865;28;20055;-69
2023/04/15 07:06:22;;;;;;;1999.90;999.90;;;24.70;92.80;;;;;;5059126;28;20025;-69
2023/04/15 07:08:49;;;;;;;1999.90;999.90;;;24.70;92.80;;;;;;5053423;28;20037;-69
2023/04/15 07:11:20;;;;;;;1999.90;999.90;;;24.60;92.90;;;;;;5060988;28;20056;-70
2023/04/15 07:13:47;;;;;;;1999.90;999.90;;;24.60;92.80;;;;;;5054224;28;20365;-70
2023/04/15 07:16:14;;;;;;;1999.90;999.90;;;24.50;93.10;;;;;;5057189;28;20036;-69
2023/04/15 07:18:42;;;;;;;1999.90;999.90;;;24.50;93.20;;;;;;5048944;28;20083;-68
2023/04/15 07:21:10;;;;;;;1999.90;999.90;;;24.40;93.10;;;;;;5057277;28;20021;-70
2023/04/15 07:23:37;;;;;;;1999.90;999.90;;;24.50;93.00;;;;;;5052352;28;20113;-69
2023/04/15 07:26:05;;;;;;;1999.90;999.90;;;24.40;93.50;;;;;;5058330;28;20082;-70
2023/04/15 07:28:32;;;;;;;1999.90;999.90;;;24.40;93.20;;;;;;5050859;28;20040;-70
2023/04/15 07:30:59;;;;;;;1999.90;999.90;;;24.30;93.20;;;;;;5057296;28;20037;-69
2023/04/15 07:33:27;;;;;;;1999.90;999.90;;;24.30;93.30;;;;;;5051705;28;20486;-69
2023/04/15 07:35:54;;;;;;;1999.90;999.90;;;24.20;93.30;;;;;;5052841;28;20442;-70
2023/04/15 07:38:22;;;;;;;1999.90;999.90;;;24.20;93.60;;;;;;5043868;28;20117;-69
2023/04/15 07:40:49;;;;;;;1999.90;999.90;;;24.10;93.20;;;;;;5048525;28;20033;-69
2023/04/15 07:43:17;;;;;;;1999.90;999.90;;;24.10;93.70;;;;;;5044393;28;20044;-70
2023/04/15 07:45:45;;;;;;;1999.90;999.90;;;24.10;93.50;;;;;;5053090;28;20520;-69
2023/04/15 07:48:12;;;;;;;1999.90;999.90;;;24.10;93.60;;;;;;5056877;28;20041;-70
2023/04/15 07:50:39;;;;;;;1999.90;999.90;;;24.00;93.70;;;;;;5041555;28;20647;-69
2023/04/15 07:53:07;;;;;;;1999.90;999.90;;;24.00;94.20;;;;;;5049627;28;20041;-69
2023/04/15 07:55:34;;;;;;;1999.90;999.90;;;24.00;94.10;;;;;;5051166;28;20021;-68
2023/04/15 07:58:02;;;;;;;1999.90;999.90;;;23.90;94.50;;;;;;5058797;28;20035;-69
2023/04/15 08:00:29;;;;;;;1999.90;999.90;;;23.80;94.70;;;;;;5049813;28;20403;-69
2023/04/15 08:02:58;;;;;;;1999.90;999.90;;;23.70;95.00;;;;;;5055100;28;20025;-69
2023/04/15 08:05:25;;;;;;;1999.90;999.90;;;23.70;94.90;;;;;;5054250;28;20036;-69
2023/04/15 08:07:53;;;;;;;1999.90;999.90;;;23.70;94.90;;;;;;5047395;28;20040;-69
2023/04/15 08:10:20;;;;;;;1999.90;999.90;;;23.60;95.10;;;;;;5053811;28;20055;-70
2023/04/15 08:12:48;;;;;;;1999.90;999.90;;;23.60;95.30;;;;;;5055656;28;20025;-69
2023/04/15 08:15:15;;;;;;;1999.90;999.90;;;23.60;95.20;;;;;;5049431;28;20047;-70
2023/04/15 08:17:43;;;;;;;1999.90;999.90;;;23.50;95.30;;;;;;5054576;28;20384;-71
2023/04/15 08:20:12;;;;;;;1999.90;999.90;;;23.50;95.70;;;;;;5046117;28;20033;-70
2023/04/15 08:22:39;;;;;;;1999.90;999.90;;;23.50;95.20;;;;;;5052621;28;20086;-69
2023/04/15 08:25:07;;;;;;;1999.90;999.90;;;23.40;95.30;;;;;;5048105;28;20441;-69
2023/04/15 08:27:35;;;;;;;1999.90;999.90;;;23.40;95.50;;;;;;5051433;28;20074;-71
2023/04/15 08:30:03;;;;;;;1999.90;999.90;;;23.30;95.80;;;;;;5059573;28;20466;-69
2023/04/15 08:32:31;;;;;;;1999.90;999.90;;;23.30;95.60;;;;;;5055043;28;20067;-68
2023/04/15 08:34:59;;;;;;;1999.90;999.90;;;23.20;95.40;;;;;;5054693;28;20053;-70
2023/04/15 08:37:27;;;;;;;1999.90;999.90;;;23.20;95.40;;;;;;5057857;28;20032;-70
2023/04/15 08:39:54;;;;;;;1999.90;999.90;;;23.20;95.60;;;;;;5050665;28;20911;-70
2023/04/15 08:42:27;;;;;;;1999.90;999.90;;;23.10;95.60;;;;;;5047359;28;20041;-70
2023/04/15 08:44:55;;;;;;;1999.90;999.90;;;23.10;95.50;;;;;;5055178;28;20045;-68
2023/04/15 08:47:26;;;;;;;1999.90;999.90;;;23.10;95.10;;;;;;5056182;28;20029;-69
2023/04/15 08:49:57;;;;;;;1999.90;999.90;;;23.10;95.10;;;;;;5053405;28;20051;-69
2023/04/15 08:52:30;;;;;;;1999.90;999.90;;;23.10;95.00;;;;;;5060582;28;20387;-69
2023/04/15 08:54:59;;;;;;;1999.90;999.90;;;23.00;95.30;;;;;;5056132;28;20437;-68
2023/04/15 08:57:31;;;;;;;1999.90;999.90;;;23.00;95.00;;;;;;5059108;28;20029;-70
2023/04/15 08:59:58;;;;;;;1999.90;999.90;;;22.90;95.10;;;;;;5055397;28;20033;-70
2023/04/15 09:02:26;;;;;;;1999.90;999.90;;;22.90;94.90;;;;;;5060063;28;20052;-69
2023/04/15 09:04:54;;;;;;;1999.90;999.90;;;22.90;94.90;;;;;;5049202;28;20050;-69
2023/04/15 09:07:21;;;;;;;1999.90;999.90;;;22.90;94.70;;;;;;5059270;28;20024;-71
2023/04/15 09:09:50;;;;;;;1999.90;999.90;;;22.90;94.70;;;;;;5057680;28;20069;-69
2023/04/15 09:12:17;;;;;;;1999.90;999.90;;;22.90;94.90;;;;;;5057229;28;20094;-68
2023/04/15 09:14:47;;;;;;;1999.90;999.90;;;22.80;95.20;;;;;;5055353;28;20052;-68
2023/04/15 09:17:20;;;;;;;1999.90;999.90;;;22.70;95.00;;;;;;5054011;28;20028;-68
2023/04/15 09:19:48;;;;;;;1999.90;999.90;;;22.70;95.00;;;;;;5045537;28;20017;-71
2023/04/15 09:22:16;;;;;;;1999.90;999.90;;;22.70;95.20;;;;;;5051602;28;20099;-69
2023/04/15 09:24:43;;;;;;;1999.90;999.90;;;22.60;95.10;;;;;;5051276;28;20032;-68
2023/04/15 09:27:11;;;;;;;1999.90;999.90;;;22.60;95.20;;;;;;5055561;28;20032;-69
2023/04/15 09:29:41;;;;;;;1999.90;999.90;;;22.60;95.10;;;;;;5052283;28;20380;-70
2023/04/15 09:32:13;;;;;;;1999.90;999.90;;;22.60;95.30;;;;;;5054942;28;20369;-70
2023/04/15 09:34:41;;;;;;;1999.90;999.90;;;22.50;95.60;;;;;;5047698;28;20060;-69
2023/04/15 09:37:09;;;;;;;1999.90;999.90;;;22.50;95.80;;;;;;5050813;28;20061;-69
2023/04/15 09:40:07;;;;;;;1999.90;999.90;;;22.40;95.70;;;;;;5053063;28;20039;-68
2023/04/15 09:42:35;;;;;;;1999.90;999.90;;;22.30;95.90;;;;;;5044396;28;20047;-68
2023/04/15 09:45:12;;;;;;;1999.90;999.90;;;22.30;95.90;;;;;;5042448;28;20033;-69
2023/04/15 09:47:40;;;;;;;1999.90;999.90;;;22.30;95.80;;;;;;5050827;28;20476;-69
2023/04/15 09:50:07;;;;;;;1999.90;999.90;;;22.30;95.70;;;;;;5047370;28;20029;-67
2023/04/15 09:52:42;;;;;;;1999.90;999.90;;;22.30;95.90;;;;;;5049497;28;20033;-70
2023/04/15 09:55:10;;;;;;;1999.90;999.90;;;22.30;95.90;;;;;;5038065;28;20033;-69
2023/04/15 09:57:40;;;;;;;1999.90;999.90;;;22.20;96.00;;;;;;5050935;28;20487;-72
2023/04/15 10:00:10;;;;;;;1999.90;999.90;;;22.20;96.20;;;;;;5038322;28;20044;-67
2023/04/15 10:02:47;;;;;;;1999.90;999.90;;;22.10;96.40;;;;;;5033738;28;20025;-67
2023/04/15 10:05:16;;;;;;;1999.90;999.90;;;22.10;96.60;;;;;;5044080;28;20025;-69
2023/04/15 10:07:44;;;;;;;1999.90;999.90;;;22.10;96.30;;;;;;5052393;28;20058;-68
2023/04/15 10:10:12;;;;;;;1999.90;999.90;;;22.10;96.40;;;;;;5046904;28;20083;-69
2023/04/15 10:12:41;;;;;;;1999.90;999.90;;;22.00;96.40;;;;;;5049706;28;20029;-69
2023/04/15 10:15:15;;;;;;;1999.90;999.90;;;22.00;96.50;;;;;;5043568;28;20428;-69
2023/04/15 10:17:44;;;;;;;1999.90;999.90;;;22.00;96.70;;;;;;5053578;28;20028;-71
2023/04/15 10:20:13;;;;;;;1999.90;999.90;;;22.00;96.50;;;;;;5052721;28;20040;-69
2023/04/15 10:22:41;;;;;;;1999.90;999.90;;;22.00;96.40;;;;;;5052426;28;20483;-68
2023/04/15 10:25:10;;;;;;;1999.90;999.90;;;22.00;96.50;;;;;;5053395;28;20044;-71
2023/04/15 10:27:41;;;;;;;1999.90;999.90;;;21.90;96.60;;;;;;5051611;28;20032;-69
2023/04/15 10:30:08;;;;;;;1999.90;999.90;;;21.90;96.60;;;;;;5053361;28;20480;-68
2023/04/15 10:32:37;;;;;;;1999.90;999.90;;;21.90;96.60;;;;;;5042427;28;20040;-69
2023/04/15 10:35:05;;;;;;;1999.90;999.90;;;21.90;96.50;;;;;;5051745;28;20407;-69
2023/04/15 10:37:38;;;;;;;1999.90;999.90;;;21.90;96.60;;;;;;5055002;28;20383;-68
2023/04/15 10:40:26;;;;;;;1999.90;999.90;;;21.80;96.90;;;;;;5044749;28;20025;-69
2023/04/15 10:42:55;;;;;;;1999.90;999.90;;;21.80;96.90;;;;;;5058622;28;20025;-71
2023/04/15 10:45:27;;;;;;;1999.90;999.90;;;21.80;97.10;;;;;;5054064;28;20083;-69
2023/04/15 10:48:00;;;;;;;1999.90;999.90;;;21.70;97.10;;;;;;5053276;28;20063;-69
2023/04/15 10:50:31;;;;;;;1999.90;999.90;;;21.70;97.40;;;;;;5054458;28;20502;-70
2023/04/15 10:53:01;;;;;;;1999.90;999.90;;;21.60;97.60;;;;;;5055416;28;20029;-70
2023/04/15 10:55:33;;;;;;;1999.90;999.90;;;21.60;97.90;;;;;;5048919;28;20025;-69
2023/04/15 10:58:02;;;;;;;1999.90;999.90;;;21.50;98.00;;;;;;5054179;28;20025;-68
2023/04/15 11:00:31;;;;;;;1999.90;999.90;;;21.50;97.90;;;;;;5051197;28;20028;-68
2023/04/15 11:03:06;;;;;;;1999.90;999.90;;;21.50;97.90;;;;;;5047705;28;20470;-68
2023/04/15 11:05:43;;;;;;;1999.90;999.90;;;21.50;97.70;;;;;;5033014;28;20033;-68
2023/04/15 11:08:11;;;;;;;1999.90;999.90;;;21.50;97.70;;;;;;5047319;28;20063;-69
2023/04/15 11:10:38;;;;;;;1999.90;999.90;;;21.50;97.70;;;;;;5051341;28;20051;-67
2023/04/15 11:13:24;;;;;;;1999.90;999.90;;;21.50;97.70;;;;;;5037097;28;20491;-70
2023/04/15 11:15:54;;;;;;;;;;;21.50;97.50;;;;;;5064930;28;20056;-67
2023/04/15 11:18:27;;;;;;;1999.90;999.90;;;21.40;97.70;;;;;;5051654;28;20350;-69
2023/04/15 11:21:05;;;;;;;1999.90;999.90;;;21.50;97.70;;;;;;5055920;28;20065;-68
2023/04/15 11:23:45;;;;;;;1999.90;999.90;;;21.50;97.80;;;;;;5043568;28;20395;-68
2023/04/15 11:26:14;;;;;;;1999.90;999.90;;;21.40;97.90;;;;;;5044029;28;20111;-69
2023/04/15 11:28:46;;;;;;;1999.90;999.90;;;21.50;97.60;;;;;;5041515;28;20025;-68
2023/04/15 11:31:15;;;;;;;1999.90;999.90;;;21.50;97.90;;;;;;5045297;28;20033;-69
2023/04/15 11:33:52;;;;;;;1999.90;999.90;;;21.50;97.70;;;;;;5044746;28;20021;-69
2023/04/15 11:36:20;;;;;;;1999.90;999.90;;;21.50;98.00;;;;;;5045245;28;20036;-69
2023/04/15 11:38:47;;;;;;;1999.90;999.90;;;21.40;98.20;;;;;;5044574;28;20040;-69
2023/04/15 11:41:19;;;;;;;1999.90;999.90;;;21.40;98.10;;;;;;5049153;28;20504;-68
2023/04/15 11:43:47;;;;;;;1999.90;999.90;;;21.30;98.30;;;;;;5043364;28;20429;-68
2023/04/15 11:46:14;;;;;;;1999.90;999.90;;;21.30;98.30;;;;;;5050672;28;20041;-69
2023/04/15 11:48:44;;;;;;;1999.90;999.90;;;21.30;98.50;;;;;;5050247;28;20047;-70
2023/04/15 11:51:12;;;;;;;1999.90;999.90;;;21.30;98.60;;;;;;5054389;28;20029;-68
2023/04/15 11:53:53;;;;;;;1999.90;999.90;;;21.20;98.60;;;;;;5044499;28;20029;-68
2023/04/15 11:56:26;;;;;;;1999.90;999.90;;;21.20;98.80;;;;;;5051233;28;20037;-70
2023/04/15 11:58:57;;;;;;;1999.90;999.90;;;21.20;98.80;;;;;;5050287;28;20068;-69
2023/04/15 12:01:42;;;;;;;1999.90;999.90;;;21.20;98.90;;;;;;5055134;28;20029;-68
2023/04/15 12:04:21;;;;;;;1999.90;999.90;;;21.20;99.20;;;;;;5045822;28;20029;-69